createdAt,value
2023-08-29T00:00:06.800Z,985.66
2023-08-29T00:01:08.410Z,985.65
2023-08-29T00:02:10.090Z,985.65
2023-08-29T00:03:11.837Z,985.63
2023-08-29T00:04:13.604Z,985.63
2023-08-29T00:05:15.330Z,985.59
2023-08-29T00:06:17.022Z,985.64
2023-08-29T00:07:18.759Z,985.54
2023-08-29T00:08:20.495Z,985.63
2023-08-29T00:09:22.217Z,985.6
2023-08-29T00:10:23.970Z,985.58
2023-08-29T00:11:25.666Z,985.63
2023-08-29T00:12:27.432Z,985.67
2023-08-29T00:13:29.179Z,985.63
2023-08-29T00:14:30.877Z,985.64
2023-08-29T00:15:32.672Z,985.64
2023-08-29T00:16:34.455Z,985.6
2023-08-29T00:17:36.212Z,985.62
2023-08-29T00:18:37.847Z,985.62
2023-08-29T00:19:39.581Z,985.55
2023-08-29T00:20:41.309Z,985.63
2023-08-29T00:21:43.032Z,985.64
2023-08-29T00:22:44.786Z,985.63
2023-08-29T00:23:46.503Z,985.6
2023-08-29T00:24:48.253Z,985.66
2023-08-29T00:25:49.979Z,985.74
2023-08-29T00:26:51.714Z,985.69
2023-08-29T00:27:53.406Z,985.74
2023-08-29T00:28:55.191Z,985.68
2023-08-29T00:29:56.911Z,985.7
2023-08-29T00:30:58.666Z,985.68
2023-08-29T00:32:00.424Z,985.71
2023-08-29T00:33:02.252Z,985.69
2023-08-29T00:34:03.844Z,985.76
2023-08-29T00:35:05.585Z,985.73
2023-08-29T00:36:07.318Z,985.75
2023-08-29T00:37:09.054Z,985.76
2023-08-29T00:38:10.808Z,985.76
2023-08-29T00:39:12.519Z,985.74
2023-08-29T00:40:14.294Z,985.78
2023-08-29T00:41:15.988Z,985.79
2023-08-29T00:42:17.705Z,985.76
2023-08-29T00:43:19.454Z,985.81
2023-08-29T00:44:21.198Z,985.78
2023-08-29T00:45:22.923Z,985.87
2023-08-29T00:46:24.720Z,985.87
2023-08-29T00:47:26.400Z,985.92
2023-08-29T00:48:28.132Z,985.92
2023-08-29T00:49:29.852Z,985.87
2023-08-29T00:50:31.580Z,986.01
2023-08-29T00:51:33.325Z,985.99
2023-08-29T00:52:35.068Z,986.04
2023-08-29T00:53:36.784Z,986.05
2023-08-29T00:54:38.540Z,986.07
2023-08-29T00:55:40.239Z,986.05
2023-08-29T00:56:41.996Z,986.05
2023-08-29T00:57:43.730Z,986.03
2023-08-29T00:58:45.453Z,986.06
2023-08-29T00:59:47.194Z,986.02
2023-08-29T01:00:48.925Z,986.03
2023-08-29T01:01:50.741Z,986.01
2023-08-29T01:02:52.450Z,986.04
2023-08-29T01:03:54.135Z,986.03
2023-08-29T01:04:55.851Z,986
2023-08-29T01:05:57.585Z,986.03
2023-08-29T01:06:59.306Z,986.01
2023-08-29T01:08:01.512Z,986.05
2023-08-29T01:09:02.776Z,986.07
2023-08-29T01:10:04.538Z,986.07
2023-08-29T01:11:06.264Z,986.04
2023-08-29T01:12:07.988Z,986.05
2023-08-29T01:13:09.734Z,986.02
2023-08-29T01:14:11.464Z,986.07
2023-08-29T01:15:13.184Z,986.07
2023-08-29T01:16:15.102Z,986.06
2023-08-29T01:17:16.658Z,986.03
2023-08-29T01:18:18.407Z,986.07
2023-08-29T01:19:20.118Z,986.04
2023-08-29T01:20:21.848Z,986.02
2023-08-29T01:21:23.582Z,986.05
2023-08-29T01:22:25.327Z,986.05
2023-08-29T01:23:27.056Z,986.08
2023-08-29T01:24:28.798Z,986.11
2023-08-29T01:25:30.524Z,986.16
2023-08-29T01:26:32.247Z,986.15
2023-08-29T01:27:33.998Z,986.16
2023-08-29T01:28:35.714Z,986.15
2023-08-29T01:29:37.671Z,986.2
2023-08-29T01:30:39.206Z,986.14
2023-08-29T01:31:40.989Z,986.15
2023-08-29T01:32:42.729Z,986.14
2023-08-29T01:33:44.416Z,986.19
2023-08-29T01:34:46.124Z,986.18
2023-08-29T01:35:48.133Z,986.2
2023-08-29T01:36:49.606Z,986.17
2023-08-29T01:37:51.333Z,986.19
2023-08-29T01:38:53.061Z,986.16
2023-08-29T01:39:54.826Z,986.11
2023-08-29T01:40:56.548Z,986.08
2023-08-29T01:41:58.275Z,986.05
2023-08-29T01:43:00.021Z,986.03
2023-08-29T01:44:01.738Z,986.07
2023-08-29T01:45:03.537Z,986.02
2023-08-29T01:46:05.238Z,986
2023-08-29T01:47:06.962Z,986.04
2023-08-29T01:48:09.286Z,986.08
2023-08-29T01:49:10.405Z,986.04
2023-08-29T01:50:12.166Z,986.05
2023-08-29T01:51:13.893Z,986.04
2023-08-29T01:52:15.627Z,986.03
2023-08-29T01:53:17.351Z,985.97
2023-08-29T01:54:19.084Z,985.96
2023-08-29T01:55:20.838Z,985.93
2023-08-29T01:56:22.554Z,985.9
2023-08-29T01:57:24.294Z,985.87
2023-08-29T01:58:26.018Z,985.86
2023-08-29T01:59:27.761Z,985.88
2023-08-29T02:00:29.502Z,985.82
2023-08-29T02:01:31.263Z,985.81
2023-08-29T02:02:33.002Z,985.83
2023-08-29T02:03:34.698Z,985.78
2023-08-29T02:04:36.510Z,985.79
2023-08-29T02:05:38.163Z,985.75
2023-08-29T02:06:39.897Z,985.74
2023-08-29T02:07:41.630Z,985.74
2023-08-29T02:08:43.369Z,985.71
2023-08-29T02:09:45.107Z,985.69
2023-08-29T02:10:46.869Z,985.68
2023-08-29T02:11:48.564Z,985.68
2023-08-29T02:12:50.284Z,985.66
2023-08-29T02:13:52.024Z,985.65
2023-08-29T02:14:53.774Z,985.66
2023-08-29T02:15:55.532Z,985.64
2023-08-29T02:16:57.252Z,985.65
2023-08-29T02:17:58.994Z,985.66
2023-08-29T02:19:00.725Z,985.64
2023-08-29T02:20:02.431Z,985.62
2023-08-29T02:21:04.178Z,985.61
2023-08-29T02:22:05.900Z,985.61
2023-08-29T02:23:07.637Z,985.61
2023-08-29T02:24:09.354Z,985.61
2023-08-29T02:25:11.103Z,985.62
2023-08-29T02:26:12.836Z,985.58
2023-08-29T02:27:14.588Z,985.59
2023-08-29T02:28:16.305Z,985.63
2023-08-29T02:29:18.164Z,985.56
2023-08-29T02:30:19.793Z,985.55
2023-08-29T02:31:21.543Z,985.52
2023-08-29T02:32:23.242Z,985.54
2023-08-29T02:33:25.004Z,985.5
2023-08-29T02:34:26.715Z,985.49
2023-08-29T02:35:28.423Z,985.45
2023-08-29T02:36:30.216Z,985.44
2023-08-29T02:37:31.910Z,985.41
2023-08-29T02:38:33.667Z,985.38
2023-08-29T02:39:35.417Z,985.38
2023-08-29T02:40:37.101Z,985.32
2023-08-29T02:41:38.850Z,985.33
2023-08-29T02:42:40.725Z,985.25
2023-08-29T02:43:42.327Z,985.22
2023-08-29T02:44:44.040Z,985.23
2023-08-29T02:45:45.778Z,985.19
2023-08-29T02:46:47.577Z,985.15
2023-08-29T02:47:49.230Z,985.16
2023-08-29T02:48:51.066Z,985.13
2023-08-29T02:49:52.736Z,985.16
2023-08-29T02:50:54.443Z,985.15
2023-08-29T02:51:56.305Z,985.13
2023-08-29T02:52:57.916Z,985.14
2023-08-29T02:53:59.688Z,985.18
2023-08-29T02:55:01.403Z,985.15
2023-08-29T02:56:03.157Z,985.2
2023-08-29T02:57:04.881Z,985.13
2023-08-29T02:58:06.822Z,985.17
2023-08-29T02:59:08.340Z,985.17
2023-08-29T03:00:10.050Z,985.16
2023-08-29T03:01:11.842Z,985.18
2023-08-29T03:02:13.506Z,985.14
2023-08-29T03:03:15.390Z,985.14
2023-08-29T03:04:16.990Z,985.17
2023-08-29T03:05:18.716Z,985.1
2023-08-29T03:06:20.457Z,985.14
2023-08-29T03:07:22.192Z,985.08
2023-08-29T03:08:23.943Z,985.13
2023-08-29T03:09:25.721Z,985.11
2023-08-29T03:10:27.410Z,985.11
2023-08-29T03:11:29.120Z,985.13
2023-08-29T03:12:30.872Z,985.14
2023-08-29T03:13:32.613Z,985.11
2023-08-29T03:14:34.370Z,985.12
2023-08-29T03:15:36.053Z,985.13
2023-08-29T03:16:37.870Z,985.14
2023-08-29T03:17:39.561Z,985.15
2023-08-29T03:18:41.278Z,985.14
2023-08-29T03:19:43.012Z,985.13
2023-08-29T03:20:44.739Z,985.14
2023-08-29T03:21:46.483Z,985.18
2023-08-29T03:22:48.200Z,985.19
2023-08-29T03:23:49.974Z,985.19
2023-08-29T03:24:51.670Z,985.12
2023-08-29T03:25:53.414Z,985.21
2023-08-29T03:26:55.148Z,985.24
2023-08-29T03:27:56.883Z,985.21
2023-08-29T03:28:58.615Z,985.25
2023-08-29T03:30:00.331Z,985.27
2023-08-29T03:31:02.058Z,985.24
2023-08-29T03:32:03.805Z,985.27
2023-08-29T03:33:05.640Z,985.23
2023-08-29T03:34:07.385Z,985.28
2023-08-29T03:35:09.024Z,985.27
2023-08-29T03:36:10.752Z,985.29
2023-08-29T03:37:12.624Z,985.31
2023-08-29T03:38:14.219Z,985.31
2023-08-29T03:39:15.933Z,985.29
2023-08-29T03:40:17.677Z,985.31
2023-08-29T03:41:19.417Z,985.35
2023-08-29T03:42:21.160Z,985.29
2023-08-29T03:43:22.891Z,985.36
2023-08-29T03:44:24.616Z,985.35
2023-08-29T03:45:26.397Z,985.34
2023-08-29T03:46:28.141Z,985.29
2023-08-29T03:47:29.863Z,985.37
2023-08-29T03:48:32.164Z,985.4
2023-08-29T03:49:33.313Z,985.37
2023-08-29T03:50:35.024Z,985.35
2023-08-29T03:51:36.755Z,985.35
2023-08-29T03:52:38.493Z,985.35
2023-08-29T03:53:40.245Z,985.36
2023-08-29T03:54:41.976Z,985.35
2023-08-29T03:55:43.709Z,985.36
2023-08-29T03:56:45.452Z,985.4
2023-08-29T03:57:47.170Z,985.4
2023-08-29T03:58:48.886Z,985.4
2023-08-29T03:59:50.623Z,985.44
2023-08-29T04:00:52.422Z,985.46
2023-08-29T04:01:54.094Z,985.47
2023-08-29T04:02:55.933Z,985.45
2023-08-29T04:03:57.829Z,985.46
2023-08-29T04:04:59.570Z,985.4
2023-08-29T04:06:01.130Z,985.43
2023-08-29T04:07:02.775Z,985.4
2023-08-29T04:08:04.737Z,985.43
2023-08-29T04:09:06.246Z,985.38
2023-08-29T04:10:07.976Z,985.41
2023-08-29T04:11:09.728Z,985.39
2023-08-29T04:12:11.446Z,985.41
2023-08-29T04:13:13.173Z,985.38
2023-08-29T04:14:14.911Z,985.38
2023-08-29T04:15:16.662Z,985.37
2023-08-29T04:16:18.441Z,985.36
2023-08-29T04:17:20.105Z,985.4
2023-08-29T04:19:23.576Z,985.4
2023-08-29T04:20:25.308Z,985.44
2023-08-29T04:21:27.035Z,985.41
2023-08-29T04:22:28.783Z,985.41
2023-08-29T04:23:30.532Z,985.43
2023-08-29T04:24:32.271Z,985.32
2023-08-29T04:25:33.983Z,985.36
2023-08-29T04:26:35.719Z,985.39
2023-08-29T04:27:37.428Z,985.38
2023-08-29T04:28:39.166Z,985.39
2023-08-29T04:29:40.922Z,985.38
2023-08-29T04:30:42.664Z,985.39
2023-08-29T04:31:44.423Z,985.37
2023-08-29T04:32:46.286Z,985.35
2023-08-29T04:33:47.849Z,985.35
2023-08-29T04:34:49.582Z,985.34
2023-08-29T04:35:51.316Z,985.32
2023-08-29T04:36:53.051Z,985.3
2023-08-29T04:37:54.761Z,985.31
2023-08-29T04:38:56.510Z,985.29
2023-08-29T04:39:58.220Z,985.31
2023-08-29T04:40:59.981Z,985.25
2023-08-29T04:42:01.694Z,985.26
2023-08-29T04:43:03.461Z,985.3
2023-08-29T04:44:05.167Z,985.32
2023-08-29T04:45:06.906Z,985.21
2023-08-29T04:46:08.679Z,985.23
2023-08-29T04:47:10.381Z,985.21
2023-08-29T04:48:12.094Z,985.19
2023-08-29T04:49:13.834Z,985.22
2023-08-29T04:50:15.579Z,985.26
2023-08-29T04:51:17.466Z,985.23
2023-08-29T04:52:19.030Z,985.24
2023-08-29T04:53:20.765Z,985.19
2023-08-29T04:54:22.491Z,985.21
2023-08-29T04:55:24.230Z,985.21
2023-08-29T04:56:25.987Z,985.22
2023-08-29T04:57:27.703Z,985.22
2023-08-29T04:58:29.434Z,985.19
2023-08-29T04:59:31.159Z,985.22
2023-08-29T05:00:32.943Z,985.24
2023-08-29T05:01:34.721Z,985.2
2023-08-29T05:02:36.397Z,985.23
2023-08-29T05:03:38.231Z,985.24
2023-08-29T05:04:39.843Z,985.22
2023-08-29T05:05:41.616Z,985.25
2023-08-29T05:06:43.310Z,985.19
2023-08-29T05:07:45.029Z,985.22
2023-08-29T05:08:46.767Z,985.23
2023-08-29T05:09:48.534Z,985.2
2023-08-29T05:10:50.250Z,985.14
2023-08-29T05:11:51.947Z,985.2
2023-08-29T05:12:53.712Z,985.17
2023-08-29T05:13:55.452Z,985.2
2023-08-29T05:14:57.181Z,985.2
2023-08-29T05:15:58.921Z,985.19
2023-08-29T05:17:00.653Z,985.17
2023-08-29T05:18:02.452Z,985.18
2023-08-29T05:19:04.127Z,985.2
2023-08-29T05:20:05.856Z,985.19
2023-08-29T05:21:07.592Z,985.24
2023-08-29T05:22:09.319Z,985.21
2023-08-29T05:23:11.044Z,985.19
2023-08-29T05:24:12.781Z,985.23
2023-08-29T05:25:14.534Z,985.25
2023-08-29T05:26:16.247Z,985.18
2023-08-29T05:27:17.983Z,985.21
2023-08-29T05:28:19.828Z,985.18
2023-08-29T05:29:21.458Z,985.15
2023-08-29T05:30:23.186Z,985.14
2023-08-29T05:31:24.949Z,985.16
2023-08-29T05:32:27.830Z,985.15
2023-08-29T05:33:28.380Z,985.14
2023-08-29T05:34:29.970Z,985.14
2023-08-29T05:35:31.786Z,985.15
2023-08-29T05:36:33.434Z,985.15
2023-08-29T05:37:35.191Z,985.18
2023-08-29T05:38:36.896Z,985.15
2023-08-29T05:39:38.632Z,985.14
2023-08-29T05:40:40.372Z,985.18
2023-08-29T05:41:42.116Z,985.18
2023-08-29T05:42:43.847Z,985.2
2023-08-29T05:43:45.606Z,985.18
2023-08-29T05:44:47.323Z,985.19
2023-08-29T05:45:49.056Z,985.17
2023-08-29T05:46:50.804Z,985.17
2023-08-29T05:47:52.558Z,985.18
2023-08-29T05:48:54.256Z,985.18
2023-08-29T05:49:56.012Z,985.2
2023-08-29T05:50:57.740Z,985.21
2023-08-29T05:51:59.467Z,985.18
2023-08-29T05:53:01.194Z,985.22
2023-08-29T05:54:02.955Z,985.17
2023-08-29T05:55:04.647Z,985.21
2023-08-29T05:56:06.419Z,985.19
2023-08-29T05:57:08.112Z,985.18
2023-08-29T05:58:09.850Z,985.17
2023-08-29T05:59:11.604Z,985.17
2023-08-29T06:00:13.340Z,985.18
2023-08-29T06:01:15.108Z,985.19
2023-08-29T06:02:16.807Z,985.18
2023-08-29T06:03:20.567Z,985.22
2023-08-29T06:04:20.299Z,985.2
2023-08-29T06:05:22.013Z,985.2
2023-08-29T06:06:23.749Z,985.18
2023-08-29T06:07:25.457Z,985.17
2023-08-29T06:08:27.841Z,985.16
2023-08-29T06:09:28.937Z,985.15
2023-08-29T06:10:30.694Z,985.16
2023-08-29T06:11:32.398Z,985.17
2023-08-29T06:12:34.151Z,985.14
2023-08-29T06:13:35.893Z,985.12
2023-08-29T06:14:37.606Z,985.15
2023-08-29T06:15:39.329Z,985.11
2023-08-29T06:16:41.157Z,985.14
2023-08-29T06:17:42.939Z,985.12
2023-08-29T06:18:44.556Z,985.12
2023-08-29T06:19:46.294Z,985.17
2023-08-29T06:20:48.017Z,985.15
2023-08-29T06:21:49.760Z,985.15
2023-08-29T06:22:51.517Z,985.12
2023-08-29T06:23:53.239Z,985.1
2023-08-29T06:24:54.936Z,985.13
2023-08-29T06:25:56.656Z,985.12
2023-08-29T06:26:58.387Z,985.13
2023-08-29T06:28:00.184Z,985.16
2023-08-29T06:29:01.862Z,985.16
2023-08-29T06:30:03.609Z,985.17
2023-08-29T06:31:08.342Z,985.19
2023-08-29T06:32:07.078Z,985.2
2023-08-29T06:33:08.819Z,985.21
2023-08-29T06:34:10.564Z,985.2
2023-08-29T06:35:12.267Z,985.18
2023-08-29T06:36:13.989Z,985.17
2023-08-29T06:37:15.716Z,985.2
2023-08-29T06:38:17.451Z,985.21
2023-08-29T06:39:19.208Z,985.21
2023-08-29T06:40:20.927Z,985.21
2023-08-29T06:41:22.698Z,985.24
2023-08-29T06:42:24.402Z,985.27
2023-08-29T06:43:26.160Z,985.19
2023-08-29T06:44:27.859Z,985.27
2023-08-29T06:45:29.659Z,985.24
2023-08-29T06:46:31.385Z,985.26
2023-08-29T06:47:33.081Z,985.29
2023-08-29T06:48:34.789Z,985.28
2023-08-29T06:49:36.537Z,985.32
2023-08-29T06:50:38.261Z,985.3
2023-08-29T06:51:40.050Z,985.32
2023-08-29T06:52:41.764Z,985.3
2023-08-29T06:53:43.487Z,985.29
2023-08-29T06:54:45.230Z,985.3
2023-08-29T06:55:46.957Z,985.33
2023-08-29T06:56:48.701Z,985.33
2023-08-29T06:57:50.459Z,985.37
2023-08-29T06:58:52.157Z,985.37
2023-08-29T06:59:53.896Z,985.33
2023-08-29T07:00:55.660Z,985.35
2023-08-29T07:01:57.354Z,985.39
2023-08-29T07:02:59.131Z,985.37
2023-08-29T07:04:00.811Z,985.36
2023-08-29T07:05:02.539Z,985.37
2023-08-29T07:06:04.274Z,985.41
2023-08-29T07:07:06.016Z,985.39
2023-08-29T07:08:08.044Z,985.44
2023-08-29T07:09:09.495Z,985.37
2023-08-29T07:10:11.216Z,985.4
2023-08-29T07:11:12.943Z,985.41
2023-08-29T07:12:14.691Z,985.33
2023-08-29T07:13:16.434Z,985.41
2023-08-29T07:14:18.149Z,985.4
2023-08-29T07:15:19.878Z,985.39
2023-08-29T07:16:21.651Z,985.42
2023-08-29T07:17:23.428Z,985.36
2023-08-29T07:18:25.135Z,985.4
2023-08-29T07:19:26.827Z,985.36
2023-08-29T07:20:28.624Z,985.36
2023-08-29T07:21:30.640Z,985.39
2023-08-29T07:22:32.030Z,985.38
2023-08-29T07:23:33.759Z,985.35
2023-08-29T07:24:35.497Z,985.34
2023-08-29T07:25:37.242Z,985.38
2023-08-29T07:26:38.975Z,985.35
2023-08-29T07:27:40.708Z,985.37
2023-08-29T07:28:42.446Z,985.36
2023-08-29T07:29:44.205Z,985.39
2023-08-29T07:30:45.918Z,985.38
2023-08-29T07:31:47.626Z,985.4
2023-08-29T07:32:49.418Z,985.4
2023-08-29T07:33:51.100Z,985.4
2023-08-29T07:34:52.851Z,985.42
2023-08-29T07:35:54.562Z,985.42
2023-08-29T07:36:56.299Z,985.43
2023-08-29T07:37:58.041Z,985.42
2023-08-29T07:38:59.765Z,985.47
2023-08-29T07:40:01.501Z,985.5
2023-08-29T07:41:03.209Z,985.5
2023-08-29T07:42:05.008Z,985.52
2023-08-29T07:43:06.730Z,985.58
2023-08-29T07:44:08.448Z,985.58
2023-08-29T07:45:10.173Z,985.61
2023-08-29T07:46:11.957Z,985.64
2023-08-29T07:47:15.427Z,985.69
2023-08-29T07:48:15.446Z,985.64
2023-08-29T07:49:17.117Z,985.66
2023-08-29T07:50:18.858Z,985.68
2023-08-29T07:51:20.619Z,985.71
2023-08-29T07:52:22.307Z,985.72
2023-08-29T07:53:24.048Z,985.72
2023-08-29T07:54:25.807Z,985.69
2023-08-29T07:55:27.529Z,985.74
2023-08-29T07:56:29.276Z,985.68
2023-08-29T07:57:31.001Z,985.72
2023-08-29T07:58:32.872Z,985.78
2023-08-29T07:59:34.479Z,985.8
2023-08-29T08:00:36.190Z,985.71
2023-08-29T08:01:37.990Z,985.75
2023-08-29T08:02:39.825Z,985.78
2023-08-29T08:03:41.397Z,985.77
2023-08-29T08:04:43.113Z,985.76
2023-08-29T08:05:44.858Z,985.81
2023-08-29T08:06:46.639Z,985.78
2023-08-29T08:07:48.325Z,985.81
2023-08-29T08:08:50.069Z,985.79
2023-08-29T08:09:51.802Z,985.78
2023-08-29T08:10:53.534Z,985.82
2023-08-29T08:11:55.250Z,985.81
2023-08-29T08:12:57.004Z,985.84
2023-08-29T08:13:58.955Z,985.81
2023-08-29T08:15:00.487Z,985.84
2023-08-29T08:16:03.719Z,985.84
2023-08-29T08:17:03.922Z,985.85
2023-08-29T08:18:05.895Z,985.87
2023-08-29T08:19:07.396Z,985.89
2023-08-29T08:20:09.208Z,985.89
2023-08-29T08:21:10.845Z,985.92
2023-08-29T08:22:12.594Z,985.88
2023-08-29T08:23:14.310Z,985.96
2023-08-29T08:24:16.061Z,985.93
2023-08-29T08:25:17.803Z,985.96
2023-08-29T08:26:19.551Z,985.96
2023-08-29T08:27:21.251Z,985.97
2023-08-29T08:28:23.000Z,985.92
2023-08-29T08:29:24.748Z,985.92
2023-08-29T08:30:26.451Z,985.92
2023-08-29T08:31:28.389Z,985.97
2023-08-29T08:32:29.933Z,985.96
2023-08-29T08:33:31.737Z,986.01
2023-08-29T08:34:33.389Z,986
2023-08-29T08:35:38.467Z,985.98
2023-08-29T08:36:36.863Z,985.97
2023-08-29T08:37:38.604Z,985.99
2023-08-29T08:38:40.323Z,986.03
2023-08-29T08:39:42.076Z,986.06
2023-08-29T08:40:43.853Z,986.07
2023-08-29T08:41:45.536Z,986.05
2023-08-29T08:42:47.276Z,986.09
2023-08-29T08:43:49.100Z,986.08
2023-08-29T08:44:50.732Z,986.05
2023-08-29T08:45:52.495Z,986.1
2023-08-29T08:46:54.206Z,986.07
2023-08-29T08:47:56.022Z,986.08
2023-08-29T08:48:57.684Z,986.05
2023-08-29T08:49:59.401Z,986.06
2023-08-29T08:51:01.150Z,985.97
2023-08-29T08:52:04.765Z,986.03
2023-08-29T08:53:04.608Z,986
2023-08-29T08:54:06.334Z,986.04
2023-08-29T08:55:08.122Z,986.03
2023-08-29T08:56:09.892Z,986.05
2023-08-29T08:57:12.942Z,986.03
2023-08-29T08:58:13.296Z,986.04
2023-08-29T08:59:15.190Z,986.04
2023-08-29T09:00:16.761Z,986.06
2023-08-29T09:01:18.543Z,986.05
2023-08-29T09:02:20.594Z,986.03
2023-08-29T09:03:21.994Z,986.04
2023-08-29T09:04:23.728Z,986.07
2023-08-29T09:05:25.423Z,986.08
2023-08-29T09:06:27.157Z,986.07
2023-08-29T09:07:28.893Z,986.06
2023-08-29T09:08:30.629Z,986.06
2023-08-29T09:09:32.391Z,986.07
2023-08-29T09:10:34.132Z,986.06
2023-08-29T09:11:35.814Z,986.09
2023-08-29T09:12:37.549Z,986.05
2023-08-29T09:13:39.291Z,986.11
2023-08-29T09:14:41.110Z,986.13
2023-08-29T09:15:42.830Z,986.09
2023-08-29T09:16:44.608Z,986.12
2023-08-29T09:17:46.290Z,986.11
2023-08-29T09:18:47.976Z,986.13
2023-08-29T09:19:49.698Z,986.12
2023-08-29T09:20:51.442Z,986.13
2023-08-29T09:21:53.171Z,986.13
2023-08-29T09:22:54.908Z,986.1
2023-08-29T09:23:56.640Z,986.12
2023-08-29T09:24:58.406Z,986.08
2023-08-29T09:26:00.234Z,986.08
2023-08-29T09:27:01.832Z,986.1
2023-08-29T09:28:05.955Z,986.11
2023-08-29T09:29:05.425Z,986.07
2023-08-29T09:30:07.005Z,986.09
2023-08-29T09:31:08.802Z,986.1
2023-08-29T09:32:10.494Z,986.06
2023-08-29T09:33:12.243Z,986.11
2023-08-29T09:34:13.978Z,986.13
2023-08-29T09:35:15.714Z,986.13
2023-08-29T09:36:17.440Z,986.15
2023-08-29T09:37:19.172Z,986.13
2023-08-29T09:38:20.889Z,986.14
2023-08-29T09:39:22.656Z,986.11
2023-08-29T09:40:37.492Z,986.1
2023-08-29T09:41:26.130Z,986.08
2023-08-29T09:42:27.852Z,986.12
2023-08-29T09:43:29.604Z,986.04
2023-08-29T09:44:31.341Z,986.1
2023-08-29T09:45:33.165Z,986.08
2023-08-29T09:46:34.751Z,986.07
2023-08-29T09:47:36.577Z,986.07
2023-08-29T09:48:38.254Z,986.04
2023-08-29T09:49:39.986Z,986.04
2023-08-29T09:50:41.718Z,986.01
2023-08-29T09:51:43.456Z,985.99
2023-08-29T09:52:45.214Z,985.98
2023-08-29T09:53:46.926Z,986.03
2023-08-29T09:54:48.667Z,986.05
2023-08-29T09:55:50.407Z,986.04
2023-08-29T09:56:52.123Z,985.98
2023-08-29T09:57:53.856Z,986.03
2023-08-29T09:58:55.590Z,986.03
2023-08-29T09:59:57.343Z,986.03
2023-08-29T10:00:59.070Z,986
2023-08-29T10:02:00.785Z,985.99
2023-08-29T10:03:02.586Z,985.98
2023-08-29T10:04:04.229Z,985.92
2023-08-29T10:05:05.969Z,985.94
2023-08-29T10:06:07.702Z,985.96
2023-08-29T10:07:09.459Z,985.9
2023-08-29T10:08:11.171Z,985.88
2023-08-29T10:09:12.911Z,985.91
2023-08-29T10:10:14.677Z,985.86
2023-08-29T10:11:16.386Z,985.88
2023-08-29T10:12:18.137Z,985.91
2023-08-29T10:13:19.846Z,985.9
2023-08-29T10:14:21.580Z,985.88
2023-08-29T10:15:23.331Z,985.83
2023-08-29T10:16:25.082Z,985.83
2023-08-29T10:17:32.145Z,985.82
2023-08-29T10:18:28.560Z,985.83
2023-08-29T10:19:30.299Z,985.75
2023-08-29T10:20:31.986Z,985.79
2023-08-29T10:21:33.728Z,985.8
2023-08-29T10:22:35.469Z,985.78
2023-08-29T10:23:37.200Z,985.77
2023-08-29T10:24:38.926Z,985.74
2023-08-29T10:25:40.674Z,985.74
2023-08-29T10:26:42.396Z,985.73
2023-08-29T10:27:44.168Z,985.69
2023-08-29T10:28:45.869Z,985.71
2023-08-29T10:29:47.603Z,985.68
2023-08-29T10:30:49.402Z,985.72
2023-08-29T10:31:51.071Z,985.66
2023-08-29T10:32:52.860Z,985.69
2023-08-29T10:33:54.562Z,985.62
2023-08-29T10:34:56.265Z,985.68
2023-08-29T10:35:58.008Z,985.63
2023-08-29T10:36:59.762Z,985.67
2023-08-29T10:38:01.491Z,985.6
2023-08-29T10:39:03.233Z,985.63
2023-08-29T10:40:04.944Z,985.62
2023-08-29T10:41:06.670Z,985.67
2023-08-29T10:42:08.491Z,985.65
2023-08-29T10:43:10.152Z,985.64
2023-08-29T10:44:11.873Z,985.68
2023-08-29T10:45:13.632Z,985.69
2023-08-29T10:46:15.453Z,985.66
2023-08-29T10:47:17.092Z,985.66
2023-08-29T10:48:18.816Z,985.64
2023-08-29T10:49:20.537Z,985.65
2023-08-29T10:50:22.731Z,985.61
2023-08-29T10:51:24.185Z,985.61
2023-08-29T10:52:25.744Z,985.56
2023-08-29T10:53:27.480Z,985.58
2023-08-29T10:54:29.233Z,985.56
2023-08-29T10:55:30.941Z,985.51
2023-08-29T10:56:32.721Z,985.57
2023-08-29T10:57:34.417Z,985.54
2023-08-29T10:58:36.171Z,985.57
2023-08-29T10:59:37.884Z,985.53
2023-08-29T11:00:39.657Z,985.56
2023-08-29T11:01:41.377Z,985.54
2023-08-29T11:02:43.265Z,985.55
2023-08-29T11:03:44.837Z,985.49
2023-08-29T11:05:48.417Z,985.47
2023-08-29T11:06:50.025Z,985.48
2023-08-29T11:07:51.767Z,985.48
2023-08-29T11:08:53.528Z,985.42
2023-08-29T11:09:55.240Z,985.47
2023-08-29T11:10:56.977Z,985.43
2023-08-29T11:11:58.700Z,985.46
2023-08-29T11:13:00.448Z,985.42
2023-08-29T11:14:02.191Z,985.41
2023-08-29T11:15:03.896Z,985.43
2023-08-29T11:16:05.691Z,985.46
2023-08-29T11:17:07.425Z,985.47
2023-08-29T11:18:09.386Z,985.43
2023-08-29T11:19:10.839Z,985.49
2023-08-29T11:20:12.590Z,985.49
2023-08-29T11:21:15.006Z,985.47
2023-08-29T11:22:16.046Z,985.45
2023-08-29T11:23:17.801Z,985.44
2023-08-29T11:24:19.525Z,985.41
2023-08-29T11:25:21.265Z,985.42
2023-08-29T11:26:22.979Z,985.44
2023-08-29T11:27:24.734Z,985.37
2023-08-29T11:28:26.444Z,985.44
2023-08-29T11:29:28.190Z,985.45
2023-08-29T11:30:42.259Z,985.36
2023-08-29T11:31:31.691Z,985.42
2023-08-29T11:32:33.396Z,985.41
2023-08-29T11:33:35.115Z,985.38
2023-08-29T11:34:36.848Z,985.36
2023-08-29T11:35:38.585Z,985.4
2023-08-29T11:36:40.339Z,985.39
2023-08-29T11:37:42.065Z,985.37
2023-08-29T11:38:43.795Z,985.38
2023-08-29T11:39:45.510Z,985.37
2023-08-29T11:40:56.507Z,985.37
2023-08-29T11:41:59.126Z,985.38
2023-08-29T11:43:19.240Z,985.37
2023-08-29T11:44:17.144Z,985.37
2023-08-29T11:45:43.955Z,985.39
2023-08-29T11:46:57.707Z,985.36
2023-08-29T11:47:59.406Z,985.38
2023-08-29T11:49:01.112Z,985.37
2023-08-29T11:50:02.865Z,985.33
2023-08-29T11:51:06.693Z,985.34
2023-08-29T11:52:06.340Z,985.32
2023-08-29T11:53:08.068Z,985.31
2023-08-29T11:54:09.780Z,985.32
2023-08-29T11:55:11.531Z,985.33
2023-08-29T11:56:13.254Z,985.26
2023-08-29T11:57:14.979Z,985.26
2023-08-29T11:58:16.710Z,985.28
2023-08-29T11:59:18.459Z,985.27
2023-08-29T12:00:20.221Z,985.25
2023-08-29T12:01:22.006Z,985.25
2023-08-29T12:02:23.649Z,985.21
2023-08-29T12:03:25.425Z,985.28
2023-08-29T12:04:27.141Z,985.28
2023-08-29T12:05:28.853Z,985.26
2023-08-29T12:06:30.598Z,985.25
2023-08-29T12:07:32.335Z,985.25
2023-08-29T12:08:34.086Z,985.3
2023-08-29T12:09:35.811Z,985.25
2023-08-29T12:10:37.546Z,985.26
2023-08-29T12:11:39.247Z,985.27
2023-08-29T12:12:41.003Z,985.26
2023-08-29T12:13:42.732Z,985.22
2023-08-29T12:14:44.481Z,985.23
2023-08-29T12:15:46.227Z,985.24
2023-08-29T12:16:47.975Z,985.29
2023-08-29T12:17:49.697Z,985.31
2023-08-29T12:18:51.408Z,985.31
2023-08-29T12:19:53.135Z,985.24
2023-08-29T12:20:54.874Z,985.28
2023-08-29T12:21:56.607Z,985.26
2023-08-29T12:22:58.359Z,985.23
2023-08-29T12:24:00.150Z,985.23
2023-08-29T12:25:01.815Z,985.25
2023-08-29T12:26:03.540Z,985.25
2023-08-29T12:27:05.637Z,985.2
2023-08-29T12:28:07.251Z,985.2
2023-08-29T12:29:08.748Z,985.18
2023-08-29T12:30:10.487Z,985.13
2023-08-29T12:31:12.247Z,985.14
2023-08-29T12:32:13.948Z,985.14
2023-08-29T12:33:17.381Z,985.17
2023-08-29T12:34:17.422Z,985.11
2023-08-29T12:35:19.145Z,985.13
2023-08-29T12:36:20.852Z,985.11
2023-08-29T12:37:22.754Z,985.1
2023-08-29T12:38:24.358Z,985.09
2023-08-29T12:39:26.101Z,985.06
2023-08-29T12:40:27.818Z,985.06
2023-08-29T12:41:29.569Z,985.05
2023-08-29T12:42:31.282Z,985.09
2023-08-29T12:43:33.016Z,985.12
2023-08-29T12:44:34.753Z,985.14
2023-08-29T12:45:48.684Z,985.13
2023-08-29T12:46:38.295Z,985.14
2023-08-29T12:47:40.055Z,985.2
2023-08-29T12:48:41.693Z,985.24
2023-08-29T12:49:43.433Z,985.3
2023-08-29T12:50:45.198Z,985.33
2023-08-29T12:51:46.897Z,985.32
2023-08-29T12:52:48.647Z,985.35
2023-08-29T12:53:50.402Z,985.35
2023-08-29T12:54:52.131Z,985.32